createdAt,value
2022-09-10T00:03:11.847Z,100828.05
2022-09-10T00:08:34.874Z,100827.34
2022-09-10T00:13:57.962Z,100825.63
2022-09-10T00:19:22.078Z,100819.48
2022-09-10T00:24:44.208Z,100811.52
2022-09-10T00:30:09.089Z,100811.80
2022-09-10T00:35:31.726Z,100807.66
2022-09-10T00:40:54.368Z,100810.64
2022-09-10T00:46:17.124Z,100822.45
2022-09-10T00:51:40.884Z,100812.78
2022-09-10T00:57:06.582Z,100813.88
2022-09-10T01:02:28.724Z,100799.66
2022-09-10T01:07:53.270Z,100804.22
2022-09-10T01:13:36.730Z,100801.51
2022-09-10T01:19:15.899Z,100796.25
2022-09-10T01:24:59.205Z,100799.09
2022-09-10T01:30:31.954Z,100786.44
2022-09-10T01:36:00.606Z,100785.44
2022-09-10T01:41:19.443Z,100780.03
2022-09-10T01:47:04.431Z,100783.73
2022-09-10T01:53:18.707Z,100770.39
2022-09-10T01:58:50.055Z,100766.37
2022-09-10T02:04:34.202Z,100773.80
2022-09-10T02:09:57.805Z,100767.66
2022-09-10T02:15:22.909Z,100770.37
2022-09-10T02:20:46.422Z,100770.51
2022-09-10T02:26:09.244Z,100765.22
2022-09-10T02:31:32.393Z,100767.80
2022-09-10T02:36:54.782Z,100756.85
2022-09-10T02:42:19.003Z,100770.37
2022-09-10T02:47:41.141Z,100774.06
2022-09-10T02:53:03.445Z,100782.03
2022-09-10T02:58:26.230Z,100772.92
2022-09-10T03:03:49.835Z,100773.92
2022-09-10T03:09:11.998Z,100771.92
2022-09-10T03:14:34.539Z,100765.52
2022-09-10T03:19:58.679Z,100769.23
2022-09-10T03:25:23.111Z,100763.11
2022-09-10T03:30:45.699Z,100763.82
2022-09-10T03:36:08.424Z,100753.44
2022-09-10T03:41:32.399Z,100758.68
2022-09-10T03:46:54.779Z,100755.52
2022-09-10T03:52:16.931Z,100749.55
2022-09-10T03:57:39.183Z,100754.06
2022-09-10T04:03:01.411Z,100755.31
2022-09-10T04:08:24.541Z,100765.27
2022-09-10T04:13:49.369Z,100759.44
2022-09-10T04:19:11.535Z,100757.12
2022-09-10T04:24:33.732Z,100756.27
2022-09-10T04:29:55.880Z,100757.12
2022-09-10T04:35:21.157Z,100743.48
2022-09-10T04:40:43.318Z,100752.58
2022-09-10T04:46:06.153Z,100748.03
2022-09-10T04:51:28.886Z,100756.13
2022-09-10T04:56:52.752Z,100754.42
2022-09-10T05:02:15.044Z,100759.69
2022-09-10T05:07:37.336Z,100760.28
2022-09-10T05:13:00.305Z,100758.44
2022-09-10T05:18:23.223Z,100757.73
2022-09-10T05:23:45.373Z,100758.72
2022-09-10T05:29:08.014Z,100755.17
2022-09-10T05:34:30.259Z,100754.17
2022-09-10T05:39:52.987Z,100752.33
2022-09-10T05:45:15.647Z,100746.64
2022-09-10T05:50:38.783Z,100739.53
2022-09-10T05:56:00.997Z,100743.52
2022-09-10T06:01:25.172Z,100738.86
2022-09-10T06:06:48.010Z,100733.31
2022-09-10T06:12:10.547Z,100742.84
2022-09-10T06:17:32.880Z,100752.39
2022-09-10T06:22:55.544Z,100744.00
2022-09-10T06:28:18.697Z,100739.31
2022-09-10T06:33:41.392Z,100736.06
2022-09-10T06:39:04.506Z,100737.48
2022-09-10T06:44:27.088Z,100741.06
2022-09-10T06:49:49.327Z,100736.11
2022-09-10T06:55:11.700Z,100735.25
2022-09-10T07:00:34.710Z,100734.96
2022-09-10T07:05:57.755Z,100728.56
2022-09-10T07:11:22.811Z,100732.27
2022-09-10T07:16:48.968Z,100726.31
2022-09-10T07:22:11.298Z,100726.73
2022-09-10T07:27:34.407Z,100734.69
2022-09-10T07:32:56.907Z,100730.42
2022-09-10T07:38:20.920Z,100735.27
2022-09-10T07:43:50.319Z,100737.12
2022-09-10T07:49:16.125Z,100729.88
2022-09-10T07:54:38.585Z,100727.17
2022-09-10T08:00:01.249Z,100728.17
2022-09-10T08:05:24.324Z,100745.66
2022-09-10T08:10:46.526Z,100748.95
2022-09-10T08:16:15.906Z,100754.07
2022-09-10T08:21:39.092Z,100748.66
2022-09-10T08:27:01.249Z,100748.95
2022-09-10T08:32:24.647Z,100738.98
2022-09-10T08:37:48.179Z,100745.69
2022-09-10T08:43:10.711Z,100740.54
2022-09-10T08:48:37.969Z,100748.80
2022-09-10T08:54:09.013Z,100738.70
2022-09-10T08:59:41.500Z,100736.44
2022-09-10T09:05:10.595Z,100740.97
2022-09-10T09:10:46.718Z,100737.30
2022-09-10T09:16:32.604Z,100735.30
2022-09-10T09:22:05.759Z,100726.73
2022-09-10T09:27:34.063Z,100737.57
2022-09-10T09:32:59.390Z,100729.57
2022-09-10T09:38:49.260Z,100730.30
2022-09-10T09:44:25.885Z,100730.86
2022-09-10T09:50:04.459Z,100734.53
2022-09-10T09:55:41.032Z,100728.42
2022-09-10T10:01:13.705Z,100729.97
2022-09-10T10:06:40.371Z,100732.70
2022-09-10T10:12:14.762Z,100734.44
2022-09-10T10:17:45.815Z,100739.30
2022-09-10T10:23:09.007Z,100737.63
2022-09-10T10:28:37.932Z,100739.94
2022-09-10T10:34:20.833Z,100748.50
2022-09-10T10:39:56.474Z,100744.81
2022-09-10T10:45:58.708Z,100739.00
2022-09-10T10:51:38.800Z,100739.84
2022-09-10T10:57:25.703Z,100744.83
2022-09-10T11:02:56.156Z,100746.67
2022-09-10T11:08:25.588Z,100744.97
2022-09-10T11:14:03.485Z,100740.41
2022-09-10T11:20:27.818Z,100746.25
2022-09-10T11:25:39.880Z,100745.25
2022-09-10T11:31:08.710Z,100740.81
2022-09-10T11:36:53.687Z,100746.05
2022-09-10T11:42:20.235Z,100749.23
2022-09-10T11:53:28.411Z,100738.27
2022-09-10T11:59:27.865Z,100733.13
2022-09-10T12:05:44.811Z,100714.81
2022-09-10T12:11:37.604Z,100710.52
2022-09-10T12:17:09.608Z,100715.36
2022-09-10T12:22:42.277Z,100710.37
2022-09-10T12:28:09.110Z,100693.86
2022-09-10T12:33:36.692Z,100682.91
2022-09-10T12:39:31.654Z,100667.68
2022-09-10T12:44:56.994Z,100668.20
2022-09-10T12:50:34.324Z,100688.72
2022-09-10T12:56:16.013Z,100698.70
2022-09-10T13:01:58.248Z,100689.69
2022-09-10T13:07:34.749Z,100686.89
2022-09-10T13:13:01.059Z,100683.25
2022-09-10T13:18:42.281Z,100676.50
2022-09-10T13:24:07.801Z,100675.08
2022-09-10T13:30:00.131Z,100683.05
2022-09-10T13:35:58.095Z,100686.81
2022-09-10T13:41:32.463Z,100671.98
2022-09-10T13:47:17.242Z,100679.75
2022-09-10T13:52:49.843Z,100670.56
2022-09-10T13:58:17.616Z,100674.12
2022-09-10T14:03:46.728Z,100677.44
2022-09-10T14:09:12.670Z,100684.22
2022-09-10T14:14:45.163Z,100684.09
2022-09-10T14:20:24.842Z,100679.41
2022-09-10T14:26:00.180Z,100671.53
2022-09-10T14:31:39.262Z,100663.63
2022-09-10T14:37:33.715Z,100662.75
2022-09-10T14:42:57.493Z,100665.51
2022-09-10T14:48:39.307Z,100658.25
2022-09-10T14:54:09.187Z,100664.53
2022-09-10T14:59:42.384Z,100663.98
2022-09-10T15:05:05.212Z,100658.72
2022-09-10T15:10:27.583Z,100657.73
2022-09-10T15:15:50.751Z,100658.02
2022-09-10T15:21:14.845Z,100646.45
2022-09-10T15:26:38.895Z,100650.61
2022-09-10T15:32:02.120Z,100651.88
2022-09-10T15:37:25.056Z,100648.62
2022-09-10T15:42:49.092Z,100642.06
2022-09-10T15:48:11.346Z,100639.20
2022-09-10T15:53:36.475Z,100632.79
2022-09-10T15:59:03.441Z,100633.52
2022-09-10T16:04:26.521Z,100644.20
2022-09-10T16:09:49.675Z,100640.92
2022-09-10T16:15:12.922Z,100645.62
2022-09-10T16:20:36.450Z,100637.95
2022-09-10T16:26:06.181Z,100641.22
2022-09-10T16:31:33.303Z,100644.77
2022-09-10T16:36:57.165Z,100608.94
2022-09-10T16:42:19.740Z,100647.06
2022-09-10T16:47:42.493Z,100640.06
2022-09-10T16:53:11.401Z,100641.36
2022-09-10T16:58:41.809Z,100644.77
2022-09-10T17:03:58.565Z,100646.61
2022-09-10T17:09:21.551Z,100648.47
2022-09-10T17:14:44.146Z,100660.56
2022-09-10T17:20:08.013Z,100655.42
2022-09-10T17:25:30.190Z,100651.84
2022-09-10T17:30:52.910Z,100659.55
2022-09-10T17:36:17.779Z,100657.39
2022-09-10T17:41:41.682Z,100665.11
2022-09-10T17:47:04.816Z,100663.12
2022-09-10T17:52:27.041Z,100662.53
2022-09-10T17:57:50.090Z,100660.80
2022-09-10T18:03:12.498Z,100652.98
2022-09-10T18:08:35.682Z,100658.08
2022-09-10T18:14:00.084Z,100656.98
2022-09-10T18:19:25.455Z,100664.91
2022-09-10T18:24:47.650Z,100664.03
2022-09-10T18:30:10.459Z,100662.58
2022-09-10T18:35:33.300Z,100657.92
2022-09-10T18:40:57.102Z,100662.05
2022-09-10T18:46:24.141Z,100656.66
2022-09-10T18:51:47.903Z,100660.91
2022-09-10T18:57:10.771Z,100664.03
2022-09-10T19:02:33.785Z,100662.83
2022-09-10T19:07:56.666Z,100664.83
2022-09-10T19:13:19.680Z,100663.83
2022-09-10T19:18:44.179Z,100668.23
2022-09-10T19:24:08.663Z,100658.17
2022-09-10T19:29:32.629Z,100662.89
2022-09-10T19:34:58.790Z,100667.30
2022-09-10T19:40:21.994Z,100664.03
2022-09-10T19:45:44.244Z,100644.84
2022-09-10T19:51:06.641Z,100640.44
2022-09-10T19:56:33.714Z,100638.14
2022-09-10T20:01:57.632Z,100635.58
2022-09-10T20:07:22.469Z,100639.53
2022-09-10T20:12:45.252Z,100635.84
2022-09-10T20:18:07.904Z,100634.42
2022-09-10T20:23:31.055Z,100637.66
2022-09-10T20:28:56.092Z,100645.33
2022-09-10T20:34:24.686Z,100635.81
2022-09-10T20:39:48.867Z,100634.39
2022-09-10T20:45:11.762Z,100635.09
2022-09-10T20:50:33.984Z,100632.23
2022-09-10T20:55:56.220Z,100626.97
2022-09-10T21:01:34.308Z,100623.67
2022-09-10T21:06:57.319Z,100638.16
2022-09-10T21:12:19.543Z,100632.76
2022-09-10T21:17:41.985Z,100625.66
2022-09-10T21:23:04.120Z,100627.68
2022-09-10T21:28:27.749Z,100631.05
2022-09-10T21:33:51.296Z,100625.80
2022-09-10T21:39:20.257Z,100621.71
2022-09-10T21:44:42.540Z,100619.69
2022-09-10T21:50:04.814Z,100623.63
2022-09-10T21:55:27.237Z,100628.92
2022-09-10T22:00:49.453Z,100619.38
2022-09-10T22:12:07.151Z,100618.12
2022-09-10T22:17:29.415Z,100608.40
2022-09-10T22:22:51.612Z,100611.56
2022-09-10T22:28:14.277Z,100615.96
2022-09-10T22:33:37.205Z,100602.61
2022-09-10T22:39:05.250Z,100607.02
2022-09-10T22:44:28.153Z,100609.29
2022-09-10T22:49:51.093Z,100614.55
2022-09-10T22:55:14.179Z,100610.28
2022-09-10T23:00:39.212Z,100610.70
2022-09-10T23:06:09.631Z,100608.68
2022-09-10T23:11:42.717Z,100601.12
2022-09-10T23:17:06.188Z,100597.00
2022-09-10T23:22:28.616Z,100598.23
2022-09-10T23:27:51.617Z,100595.68
2022-09-10T23:33:14.450Z,100591.28
2022-09-10T23:38:36.636Z,100592.98
2022-09-10T23:43:59.017Z,100595.54
2022-09-10T23:49:24.810Z,100592.73
2022-09-10T23:54:47.849Z,100592.98
